Time;durP1;ratioP1;P1;durP2;ratioP2;P2;SDS_P1;SDS_P2;PMS_P1;PMS_P2;Temp;Humidity;BMP_temperature;BMP_pressure;BME280_temperature;BME280_humidity;BME280_pressure;Samples;Min_cycle;Max_cycle;Signal;HPM_P1;HPM_P2
2021/12/07 00:00:16;;;;;;;0.40;0.30;;;2.50;99.90;;;;;;5052986;28;20560;-78
2021/12/07 00:02:43;;;;;;;0.40;0.30;;;2.60;99.90;;;;;;5053593;28;20217;-78
2021/12/07 00:05:10;;;;;;;0.40;0.30;;;2.60;99.90;;;;;;5052822;28;20201;-78
2021/12/07 00:07:39;;;;;;;1.00;0.50;;;2.60;99.90;;;;;;5053367;28;20214;-78
2021/12/07 00:10:07;;;;;;;0.93;0.82;;;2.50;99.90;;;;;;5052808;28;20602;-78
2021/12/07 00:12:38;;;;;;;0.80;0.70;;;2.50;99.90;;;;;;5053425;28;20222;-79
2021/12/07 00:15:06;;;;;;;0.60;0.60;;;2.50;99.90;;;;;;5053213;28;20287;-78
2021/12/07 00:17:34;;;;;;;0.40;0.40;;;2.50;99.90;;;;;;5053430;28;20251;-78
2021/12/07 00:20:04;;;;;;;0.68;0.45;;;2.50;99.90;;;;;;5053188;28;20200;-78
2021/12/07 00:22:31;;;;;;;0.40;0.30;;;2.50;99.90;;;;;;5051821;28;20214;-78
2021/12/07 00:24:58;;;;;;;0.40;0.30;;;2.50;99.90;;;;;;5052558;28;20197;-78
2021/12/07 00:27:24;;;;;;;0.70;0.70;;;2.50;99.90;;;;;;5052998;28;20597;-78
2021/12/07 00:29:51;;;;;;;0.82;0.82;;;2.40;99.90;;;;;;5052086;28;20208;-76
2021/12/07 00:32:25;;;;;;;0.40;0.40;;;2.40;99.90;;;;;;5051271;28;20224;-78
2021/12/07 00:37:39;;;;;;;0.80;0.80;;;2.40;99.90;;;;;;5052022;28;20277;-78
2021/12/07 00:40:08;;;;;;;2.15;1.33;;;2.30;99.90;;;;;;5052263;28;20202;-78
2021/12/07 00:42:35;;;;;;;0.40;0.30;;;2.30;99.90;;;;;;5051886;28;20611;-79
2021/12/07 00:45:03;;;;;;;0.50;0.50;;;2.30;99.90;;;;;;5052950;28;20206;-78
2021/12/07 00:47:30;;;;;;;0.40;0.30;;;2.30;99.90;;;;;;5052707;28;20213;-78
2021/12/07 00:49:58;;;;;;;0.60;0.60;;;2.30;99.90;;;;;;5051705;28;20206;-79
2021/12/07 00:52:25;;;;;;;1.88;1.08;;;2.20;99.90;;;;;;5052380;28;20222;-78
2021/12/07 00:54:52;;;;;;;0.90;0.90;;;2.30;99.90;;;;;;5052313;28;20198;-78
2021/12/07 00:57:20;;;;;;;0.45;0.40;;;2.20;99.90;;;;;;5052235;28;20197;-78
2021/12/07 00:59:47;;;;;;;0.65;0.65;;;2.20;99.90;;;;;;5052359;28;20203;-78
2021/12/07 01:02:14;;;;;;;2.65;1.08;;;2.20;99.90;;;;;;5051976;28;20584;-79
2021/12/07 01:04:50;;;;;;;1.52;1.42;;;2.20;99.90;;;;;;5051730;28;20202;-76
2021/12/07 01:07:36;;;;;;;0.65;0.65;;;2.10;99.90;;;;;;5052333;28;20178;-78
2021/12/07 01:26:30;;;;;;;1.40;1.30;;;2.00;99.90;;;;;;5051837;28;20189;-78
2021/12/07 01:28:56;;;;;;;1.60;1.50;;;2.00;99.90;;;;;;5051848;28;20575;-78
2021/12/07 01:31:30;;;;;;;2.55;1.60;;;1.90;99.90;;;;;;5051878;28;20218;-77
2021/12/07 01:34:13;;;;;;;0.60;0.60;;;1.90;99.90;;;;;;5051944;28;20201;-78
2021/12/07 01:37:08;;;;;;;7.10;1.08;;;1.80;99.90;;;;;;5051992;28;20201;-78
2021/12/07 01:40:02;;;;;;;1.15;1.15;;;1.80;99.90;;;;;;5051976;28;20268;-79
2021/12/07 01:42:56;;;;;;;1.27;1.17;;;1.80;99.90;;;;;;5052302;28;20233;-78
2021/12/07 01:49:35;;;;;;;1.08;0.95;;;1.80;99.90;;;;;;5047305;28;20210;-79
2021/12/07 01:51:13;;;;;;;0.40;0.30;;;1.80;99.90;;;;;;5056825;28;20284;-79
2021/12/07 02:01:54;;;;;;;0.40;0.30;;;1.80;99.90;;;;;;5057093;28;20350;-78
2021/12/07 02:04:20;;;;;;;0.40;0.40;;;1.80;99.90;;;;;;5057270;28;20244;-79
2021/12/07 02:06:47;;;;;;;0.40;0.40;;;1.80;99.90;;;;;;5056868;28;20204;-76
2021/12/07 02:09:14;;;;;;;0.50;0.50;;;1.80;99.90;;;;;;5056916;28;20228;-79
2021/12/07 02:11:48;;;;;;;0.90;0.90;;;1.70;99.90;;;;;;5056900;28;20580;-78
2021/12/07 02:14:16;;;;;;;0.40;0.30;;;1.70;99.90;;;;;;5057004;28;20197;-79
2021/12/07 02:16:44;;;;;;;2.25;2.13;;;1.70;99.90;;;;;;5056990;28;20201;-79
2021/12/07 02:19:11;;;;;;;1.20;1.20;;;1.80;99.90;;;;;;5056240;28;20197;-80
2021/12/07 02:21:39;;;;;;;0.40;0.30;;;1.90;99.90;;;;;;5056779;28;20222;-80
2021/12/07 02:24:06;;;;;;;2.80;1.42;;;1.90;99.90;;;;;;5056765;28;20288;-78
2021/12/07 02:26:33;;;;;;;1.77;1.67;;;2.00;99.90;;;;;;5056191;28;20205;-79
2021/12/07 02:29:00;;;;;;;0.40;0.40;;;2.00;99.90;;;;;;5056531;28;20213;-79
2021/12/07 02:31:27;;;;;;;10.23;3.60;;;2.10;99.90;;;;;;5056703;28;20286;-77
2021/12/07 02:33:55;;;;;;;0.40;0.30;;;2.10;99.90;;;;;;5056351;28;20206;-79
2021/12/07 02:36:22;;;;;;;0.88;0.88;;;2.10;99.90;;;;;;5056399;28;20269;-79
2021/12/07 02:38:50;;;;;;;0.40;0.40;;;2.20;99.90;;;;;;5056483;28;20196;-79
2021/12/07 02:41:17;;;;;;;5.80;3.88;;;2.20;99.90;;;;;;5056408;28;20236;-79
2021/12/07 02:43:44;;;;;;;2.00;1.90;;;2.30;99.90;;;;;;5056790;28;20201;-78
2021/12/07 02:46:12;;;;;;;1.30;0.93;;;2.30;99.90;;;;;;5056152;28;20197;-79
2021/12/07 02:48:39;;;;;;;4.53;3.58;;;2.40;99.90;;;;;;5056617;28;20223;-79
2021/12/07 02:51:06;;;;;;;0.40;0.30;;;2.40;99.90;;;;;;5056376;28;20241;-78
2021/12/07 02:53:35;;;;;;;1.02;0.98;;;2.40;99.90;;;;;;5056734;28;20206;-78
2021/12/07 02:56:06;;;;;;;0.40;0.30;;;2.50;99.90;;;;;;5054894;28;20201;-80
2021/12/07 02:58:33;;;;;;;0.52;0.52;;;2.40;99.90;;;;;;5056341;28;20186;-79
2021/12/07 03:01:08;;;;;;;0.40;0.40;;;2.50;99.90;;;;;;5055255;28;20224;-79
2021/12/07 03:03:39;;;;;;;1.40;1.33;;;2.50;99.90;;;;;;5056175;28;20204;-79
2021/12/07 03:06:15;;;;;;;0.75;0.75;;;2.60;99.90;;;;;;5055710;28;20541;-79
2021/12/07 03:28:07;;;;;;;0.40;0.30;;;2.80;99.90;;;;;;5055493;28;20674;-79
2021/12/07 03:30:34;;;;;;;1.30;0.73;;;2.80;99.90;;;;;;5055097;28;20204;-79
2021/12/07 03:33:02;;;;;;;4.50;4.20;;;2.90;99.90;;;;;;5054704;28;20561;-79
2021/12/07 03:35:30;;;;;;;0.73;0.73;;;2.90;99.90;;;;;;5055637;28;20201;-80
2021/12/07 03:37:57;;;;;;;0.40;0.30;;;2.90;99.90;;;;;;5055683;28;20194;-79
2021/12/07 03:40:25;;;;;;;2.25;1.23;;;2.90;99.90;;;;;;5056152;28;20198;-78
2021/12/07 03:42:52;;;;;;;1.15;0.93;;;3.00;99.90;;;;;;5056722;28;20581;-79
2021/12/07 03:45:20;;;;;;;0.65;0.65;;;3.00;99.90;;;;;;5056827;28;20667;-79
2021/12/07 03:47:47;;;;;;;0.40;0.30;;;3.00;99.90;;;;;;5056357;28;20225;-79
2021/12/07 03:50:14;;;;;;;0.40;0.40;;;3.00;99.90;;;;;;5102483;23;20218;-80
2021/12/07 03:52:41;;;;;;;0.40;0.30;;;3.10;99.90;;;;;;5057374;28;20198;-80
2021/12/07 03:55:09;;;;;;;0.40;0.40;;;3.10;99.90;;;;;;5060118;28;20588;-80
2021/12/07 03:57:36;;;;;;;0.60;0.60;;;3.10;99.90;;;;;;5060833;28;20202;-79
2021/12/07 04:00:05;;;;;;;0.40;0.30;;;3.20;99.90;;;;;;5070845;28;20301;-79
2021/12/07 04:02:39;;;;;;;3.97;3.78;;;3.20;99.90;;;;;;5080848;28;20205;-80
2021/12/07 04:05:10;;;;;;;0.73;0.73;;;3.20;99.90;;;;;;5081490;28;20182;-80
2021/12/07 04:07:37;;;;;;;0.40;0.30;;;3.20;99.90;;;;;;5080257;28;20201;-80
2021/12/07 04:10:06;;;;;;;0.40;0.40;;;3.30;99.90;;;;;;5080168;28;20222;-79
2021/12/07 04:12:33;;;;;;;0.40;0.40;;;3.30;99.90;;;;;;5080337;28;20205;-80
2021/12/07 04:15:00;;;;;;;0.70;0.70;;;3.30;99.90;;;;;;5081231;28;20200;-80
2021/12/07 04:17:27;;;;;;;0.57;0.57;;;3.40;99.90;;;;;;5081400;28;20201;-80
2021/12/07 04:19:55;;;;;;;1.08;1.02;;;3.40;99.90;;;;;;5080245;28;20214;-79
2021/12/07 04:22:21;;;;;;;1.10;1.10;;;3.40;99.90;;;;;;5078706;28;20208;-79
2021/12/07 04:24:48;;;;;;;0.88;0.88;;;3.50;99.90;;;;;;5077554;28;20861;-79
2021/12/07 04:27:15;;;;;;;0.65;0.65;;;3.50;99.90;;;;;;5075271;28;20189;-78
2021/12/07 04:29:42;;;;;;;4.72;2.90;;;3.50;99.90;;;;;;5074970;28;20240;-78
2021/12/07 04:32:09;;;;;;;2.03;1.92;;;3.50;99.90;;;;;;5075233;28;20208;-79
2021/12/07 04:34:36;;;;;;;1.73;1.63;;;3.50;99.90;;;;;;5075203;28;20194;-78
2021/12/07 04:37:04;;;;;;;7.00;6.47;;;3.40;99.90;;;;;;5076386;28;20205;-79
2021/12/07 04:39:31;;;;;;;1.40;0.95;;;3.40;99.90;;;;;;5074524;28;20293;-77
2021/12/07 04:41:58;;;;;;;1.85;1.75;;;3.50;99.90;;;;;;5076461;28;20235;-79
2021/12/07 04:44:25;;;;;;;1.38;1.38;;;3.50;99.90;;;;;;5077297;28;20280;-79
2021/12/07 04:47:05;;;;;;;1.35;1.35;;;3.50;99.90;;;;;;5076434;28;20201;-78
2021/12/07 04:49:56;;;;;;;0.40;0.30;;;3.50;99.90;;;;;;5075649;28;20633;-78
2021/12/07 04:58:07;;;;;;;1.08;0.98;;;3.50;99.90;;;;;;5015643;28;20206;-79
2021/12/07 05:00:34;;;;;;;0.40;0.30;;;3.40;99.90;;;;;;5015527;28;20230;-78
2021/12/07 05:03:04;;;;;;;0.40;0.30;;;3.40;99.90;;;;;;5042791;28;20189;-80
2021/12/07 05:05:36;;;;;;;1.95;1.02;;;3.40;99.90;;;;;;5077260;28;20194;-79
2021/12/07 05:08:08;;;;;;;0.40;0.40;;;3.50;99.90;;;;;;5077268;28;20650;-80
2021/12/07 05:10:49;;;;;;;0.70;0.60;;;3.50;99.90;;;;;;5076976;28;20221;-80
2021/12/07 05:13:28;;;;;;;0.50;0.50;;;3.50;99.90;;;;;;5077278;28;20277;-80
2021/12/07 05:16:08;;;;;;;0.40;0.30;;;3.50;99.90;;;;;;5077821;28;20624;-80
2021/12/07 05:24:10;;;;;;;0.75;0.75;;;3.60;99.90;;;;;;5078191;28;20197;-79
2021/12/07 05:37:46;;;;;;;0.40;0.30;;;3.70;99.90;;;;;;5065025;28;20193;-80
2021/12/07 05:40:18;;;;;;;0.40;0.40;;;3.70;99.90;;;;;;5058043;28;20205;-79
2021/12/07 05:42:48;;;;;;;0.77;0.60;;;3.70;99.90;;;;;;5056054;28;20183;-80
2021/12/07 05:45:21;;;;;;;2.05;1.05;;;3.70;99.90;;;;;;5055447;28;20644;-80
2021/12/07 05:47:48;;;;;;;0.40;0.30;;;3.70;99.90;;;;;;5059405;28;20281;-79
2021/12/07 05:50:21;;;;;;;0.40;0.40;;;3.70;99.90;;;;;;5083271;28;20225;-79
2021/12/07 05:52:48;;;;;;;0.60;0.60;;;3.70;99.90;;;;;;5064395;28;20194;-77
2021/12/07 05:55:16;;;;;;;0.40;0.32;;;3.80;99.90;;;;;;5071441;28;20198;-79
2021/12/07 05:57:44;;;;;;;0.50;0.50;;;3.80;99.90;;;;;;5079013;28;20194;-78
2021/12/07 06:00:14;;;;;;;0.63;0.63;;;3.80;99.90;;;;;;5075906;28;20214;-80
2021/12/07 06:02:41;;;;;;;0.40;0.30;;;3.90;99.90;;;;;;5057397;28;20194;-80
2021/12/07 06:05:08;;;;;;;2.15;1.75;;;3.90;99.90;;;;;;5054008;28;20187;-80
2021/12/07 06:07:35;;;;;;;0.40;0.30;;;3.90;99.90;;;;;;5056286;28;20202;-79
2021/12/07 06:10:02;;;;;;;7.25;2.58;;;3.90;99.90;;;;;;5069263;28;20207;-80
2021/12/07 06:12:31;;;;;;;0.50;0.43;;;3.90;99.90;;;;;;5090563;28;20201;-79
2021/12/07 06:14:57;;;;;;;2.08;1.75;;;3.90;99.90;;;;;;5076683;28;20184;-80
2021/12/07 06:17:24;;;;;;;4.72;2.63;;;3.90;99.90;;;;;;5093833;28;20257;-81
2021/12/07 06:19:51;;;;;;;0.45;0.45;;;3.90;99.90;;;;;;5081195;28;20210;-79
2021/12/07 06:22:18;;;;;;;3.42;2.53;;;3.90;99.90;;;;;;5063151;28;20203;-79
2021/12/07 06:24:45;;;;;;;1.45;1.35;;;3.90;99.90;;;;;;5054723;28;20199;-79
2021/12/07 06:27:12;;;;;;;0.77;0.77;;;3.90;99.90;;;;;;5075534;28;20695;-79
2021/12/07 06:29:41;;;;;;;0.40;0.30;;;3.90;99.90;;;;;;5061327;28;20309;-80
2021/12/07 06:32:09;;;;;;;0.52;0.52;;;3.90;99.90;;;;;;5058920;28;20186;-79
2021/12/07 06:34:36;;;;;;;0.40;0.38;;;3.90;99.90;;;;;;5067114;28;20225;-79
2021/12/07 06:37:04;;;;;;;1.13;1.10;;;3.80;99.90;;;;;;5089840;28;20193;-79
2021/12/07 06:39:31;;;;;;;2.10;2.00;;;3.80;99.90;;;;;;5068545;28;20206;-79
2021/12/07 06:41:58;;;;;;;0.50;0.40;;;3.70;99.90;;;;;;5076338;28;20208;-80
2021/12/07 06:44:24;;;;;;;1.58;1.20;;;3.70;99.90;;;;;;5079952;28;20200;-79
2021/12/07 06:46:53;;;;;;;0.85;0.85;;;3.70;99.90;;;;;;5069573;28;20190;-80
2021/12/07 06:49:21;;;;;;;0.95;0.43;;;3.70;99.90;;;;;;5070463;28;20227;-80
2021/12/07 06:51:49;;;;;;;0.93;0.93;;;3.70;99.90;;;;;;5061253;28;20195;-79
2021/12/07 06:54:16;;;;;;;0.70;0.70;;;3.70;99.90;;;;;;5057127;28;20213;-77
2021/12/07 06:56:43;;;;;;;4.15;3.75;;;3.70;99.90;;;;;;5057919;28;20206;-80
2021/12/07 06:59:10;;;;;;;0.82;0.82;;;3.70;99.90;;;;;;5057023;28;20221;-79
2021/12/07 07:01:37;;;;;;;0.40;0.30;;;3.70;99.90;;;;;;5072664;28;20226;-79
2021/12/07 07:04:07;;;;;;;0.40;0.40;;;3.70;99.90;;;;;;5059514;28;20680;-78
2021/12/07 07:06:35;;;;;;;0.40;0.38;;;3.70;99.90;;;;;;5058113;28;20646;-78
2021/12/07 07:09:01;;;;;;;4.65;1.30;;;3.70;99.90;;;;;;5056894;28;20198;-79
2021/12/07 07:11:28;;;;;;;0.40;0.40;;;3.70;99.90;;;;;;5073662;28;20194;-78
2021/12/07 07:13:55;;;;;;;0.40;0.40;;;3.70;99.90;;;;;;5061368;28;20199;-79
2021/12/07 07:16:22;;;;;;;0.40;0.30;;;3.60;99.90;;;;;;5056743;28;20195;-79
2021/12/07 07:18:49;;;;;;;0.40;0.40;;;3.60;99.90;;;;;;5063487;28;20205;-78
2021/12/07 07:21:17;;;;;;;0.40;0.40;;;3.60;99.90;;;;;;5075144;28;20197;-78
2021/12/07 07:23:44;;;;;;;1.58;0.50;;;3.50;99.90;;;;;;5075679;28;20587;-78
2021/12/07 07:26:10;;;;;;;0.40;0.30;;;3.50;99.90;;;;;;5076464;28;20205;-79
2021/12/07 07:28:38;;;;;;;0.50;0.50;;;3.50;99.90;;;;;;5076265;28;20198;-78
2021/12/07 07:31:08;;;;;;;0.40;0.40;;;3.40;99.90;;;;;;5076196;28;20218;-79
2021/12/07 07:33:35;;;;;;;0.40;0.40;;;3.40;99.90;;;;;;5076410;28;20269;-78
2021/12/07 07:36:01;;;;;;;0.40;0.30;;;3.30;99.90;;;;;;5076079;28;20189;-78
2021/12/07 07:38:30;;;;;;;5.03;1.85;;;3.30;99.90;;;;;;5075790;28;20194;-78
2021/12/07 07:40:56;;;;;;;1.50;0.73;;;3.30;99.90;;;;;;5062304;28;20301;-78
2021/12/07 07:43:24;;;;;;;0.82;0.82;;;3.30;99.90;;;;;;5071621;28;20204;-78
2021/12/07 07:45:52;;;;;;;1.23;1.13;;;3.30;99.90;;;;;;5057274;28;20663;-78
2021/12/07 07:48:21;;;;;;;2.08;0.65;;;3.40;99.90;;;;;;5055825;28;20195;-79
2021/12/07 07:50:50;;;;;;;0.80;0.80;;;3.40;99.90;;;;;;5053639;28;20227;-79
2021/12/07 07:53:17;;;;;;;1.10;1.10;;;3.40;99.90;;;;;;5062298;28;20190;-79
2021/12/07 07:55:45;;;;;;;1.70;1.70;;;3.50;99.90;;;;;;5065885;28;20200;-79
2021/12/07 07:58:12;;;;;;;0.40;0.40;;;3.50;99.90;;;;;;5060253;28;20190;-78
2021/12/07 08:00:41;;;;;;;1.90;1.80;;;3.60;99.90;;;;;;5075101;28;20217;-78
2021/12/07 08:03:08;;;;;;;2.58;1.20;;;3.60;99.90;;;;;;5076058;28;20200;-78
2021/12/07 08:05:35;;;;;;;1.40;1.30;;;3.50;99.90;;;;;;5077376;28;20193;-78
2021/12/07 08:08:02;;;;;;;8.48;3.63;;;3.60;99.90;;;;;;5077237;28;20200;-78
2021/12/07 08:10:29;;;;;;;7.75;4.80;;;3.50;99.90;;;;;;5076780;28;20218;-79
2021/12/07 08:12:58;;;;;;;3.88;3.50;;;3.50;99.90;;;;;;5075074;28;20255;-79
2021/12/07 08:15:25;;;;;;;3.90;2.70;;;3.50;99.90;;;;;;5076329;28;20204;-79
2021/12/07 08:17:52;;;;;;;1.02;0.82;;;3.50;99.90;;;;;;5076461;28;20255;-79
2021/12/07 08:20:19;;;;;;;0.80;0.80;;;3.50;99.90;;;;;;5075880;28;20222;-79
2021/12/07 08:22:46;;;;;;;0.82;0.73;;;3.60;99.90;;;;;;5076386;28;20194;-78
2021/12/07 08:25:13;;;;;;;10.18;1.00;;;3.60;99.90;;;;;;5076147;28;20189;-78
2021/12/07 08:27:40;;;;;;;1.90;1.70;;;3.60;99.90;;;;;;5074736;28;20197;-79
2021/12/07 08:30:11;;;;;;;1.95;1.85;;;3.70;99.90;;;;;;5075148;28;20221;-79
2021/12/07 08:32:39;;;;;;;2.42;2.22;;;3.80;99.90;;;;;;5075497;28;20193;-79
2021/12/07 08:35:06;;;;;;;1.45;1.35;;;3.80;99.90;;;;;;5076431;28;20285;-79
2021/12/07 08:37:33;;;;;;;1.02;0.82;;;3.80;99.90;;;;;;5076144;28;20193;-78
2021/12/07 08:40:00;;;;;;;0.40;0.30;;;3.90;99.90;;;;;;5075319;28;20210;-79
2021/12/07 08:42:27;;;;;;;5.65;2.05;;;3.90;99.90;;;;;;5075472;28;20193;-79
2021/12/07 08:44:53;;;;;;;0.40;0.40;;;3.90;99.90;;;;;;5075135;28;20197;-78
2021/12/07 08:47:22;;;;;;;2.60;1.10;;;4.10;99.90;;;;;;5076207;28;20629;-78
2021/12/07 08:49:48;;;;;;;2.35;1.10;;;4.20;99.90;;;;;;5073854;28;20221;-79
2021/12/07 08:52:15;;;;;;;9.63;2.47;;;4.30;99.90;;;;;;5074604;28;20261;-79
2021/12/07 09:00:10;;;;;;;1.00;1.00;;;4.60;99.90;;;;;;5075480;28;20216;-79
2021/12/07 09:02:38;;;;;;;8.20;2.85;;;4.90;99.90;;;;;;5075725;28;20190;-79
2021/12/07 09:05:05;;;;;;;2.15;2.05;;;4.80;99.90;;;;;;5074525;28;20190;-78
2021/12/07 09:07:32;;;;;;;4.97;4.53;;;4.70;99.90;;;;;;5074658;28;20198;-79
2021/12/07 09:09:59;;;;;;;1.00;1.00;;;4.60;99.90;;;;;;5073082;28;20321;-77
2021/12/07 09:12:26;;;;;;;4.20;1.35;;;4.70;99.90;;;;;;5072080;28;20197;-75
2021/12/07 09:14:53;;;;;;;13.85;4.22;;;4.90;99.90;;;;;;5073340;28;20190;-74
2021/12/07 09:17:20;;;;;;;3.70;2.75;;;4.90;99.90;;;;;;5074837;28;20194;-78
2021/12/07 09:19:48;;;;;;;1.38;1.27;;;5.20;99.90;;;;;;5074336;28;20218;-77
2021/12/07 09:22:15;;;;;;;0.75;0.75;;;5.30;99.90;;;;;;5074039;28;20201;-79
2021/12/07 09:24:42;;;;;;;6.82;3.75;;;5.30;99.90;;;;;;5073987;28;20194;-79
2021/12/07 09:27:09;;;;;;;0.57;0.57;;;5.40;99.90;;;;;;5074759;28;20560;-78
2021/12/07 09:29:36;;;;;;;0.80;0.60;;;5.20;99.90;;;;;;5073992;28;20595;-79
2021/12/07 09:32:06;;;;;;;5.93;3.20;;;5.10;99.90;;;;;;5073673;28;20194;-78
2021/12/07 09:34:33;;;;;;;0.50;0.40;;;5.10;99.90;;;;;;5072761;28;20198;-79
2021/12/07 09:37:01;;;;;;;2.67;2.47;;;5.00;99.90;;;;;;5073987;28;20194;-78
2021/12/07 09:39:28;;;;;;;1.23;1.20;;;4.90;99.90;;;;;;5072752;28;20220;-78
2021/12/07 09:41:55;;;;;;;9.43;1.75;;;4.80;99.90;;;;;;5073266;28;20198;-79
2021/12/07 09:44:23;;;;;;;4.97;1.50;;;4.70;99.90;;;;;;5074282;28;20201;-79
2021/12/07 09:46:50;;;;;;;2.03;0.65;;;4.80;99.90;;;;;;5073603;28;20248;-79
2021/12/07 09:51:50;;;;;;;0.90;0.70;;;5.00;99.90;;;;;;5069184;22;20253;-75
2021/12/07 09:54:18;;;;;;;1.75;1.63;;;5.00;99.90;;;;;;5051240;28;20198;-76
2021/12/07 09:56:45;;;;;;;4.88;3.30;;;5.20;99.90;;;;;;5051414;28;20668;-75
2021/12/07 09:59:12;;;;;;;4.75;2.88;;;5.40;99.90;;;;;;5050885;28;20209;-75
2021/12/07 10:01:42;;;;;;;4.20;2.33;;;5.30;99.90;;;;;;5050661;28;20231;-76
2021/12/07 10:04:10;;;;;;;0.98;0.98;;;5.10;99.90;;;;;;5052681;28;20260;-74
2021/12/07 10:06:37;;;;;;;4.03;1.27;;;5.00;99.90;;;;;;5055273;28;20272;-74
2021/12/07 10:09:05;;;;;;;2.65;1.50;;;5.00;99.90;;;;;;5055350;28;20914;-75
2021/12/07 10:11:34;;;;;;;1.95;1.27;;;4.90;99.90;;;;;;5055101;28;20222;-75
2021/12/07 10:14:01;;;;;;;5.10;1.48;;;5.00;99.90;;;;;;5054257;28;20201;-76
2021/12/07 10:16:28;;;;;;;1.42;1.40;;;5.30;99.90;;;;;;5054814;28;20194;-75
2021/12/07 10:18:55;;;;;;;5.50;2.20;;;5.50;99.90;;;;;;5054964;28;20668;-76
2021/12/07 10:21:25;;;;;;;1.98;1.00;;;5.60;99.90;;;;;;5055214;28;20219;-75
2021/12/07 10:23:54;;;;;;;6.55;0.70;;;5.70;99.90;;;;;;5055079;28;20199;-76
2021/12/07 10:26:24;;;;;;;2.05;0.80;;;6.00;99.90;;;;;;5054933;28;20195;-76
2021/12/07 10:28:54;;;;;;;0.50;0.40;;;6.20;99.90;;;;;;5054088;28;20195;-74
2021/12/07 10:31:34;;;;;;;1.30;1.13;;;6.30;99.90;;;;;;5054491;28;20218;-76
2021/12/07 10:34:03;;;;;;;2.35;0.95;;;6.30;99.90;;;;;;5055011;28;20186;-76
2021/12/07 10:36:33;;;;;;;1.08;1.08;;;6.10;99.90;;;;;;5054811;28;20235;-75
2021/12/07 10:39:06;;;;;;;0.73;0.73;;;5.90;99.90;;;;;;5054943;28;20194;-75
2021/12/07 10:41:36;;;;;;;1.13;1.02;;;5.70;99.90;;;;;;5054726;28;20207;-75
2021/12/07 10:44:07;;;;;;;1.05;0.95;;;6.00;99.90;;;;;;5054816;28;20191;-76
2021/12/07 10:46:41;;;;;;;1.77;1.50;;;5.80;99.90;;;;;;5054842;28;20214;-76
2021/12/07 10:49:30;;;;;;;0.50;0.40;;;5.90;99.90;;;;;;5054865;28;20560;-75
2021/12/07 10:52:05;;;;;;;0.50;0.40;;;6.20;99.90;;;;;;5054141;28;20626;-76
2021/12/07 10:54:34;;;;;;;0.60;0.50;;;6.70;99.90;;;;;;5054539;28;20190;-76
2021/12/07 10:57:03;;;;;;;2.58;1.25;;;6.90;99.90;;;;;;5054683;28;20206;-76
2021/12/07 10:59:33;;;;;;;0.50;0.50;;;6.60;99.90;;;;;;5053939;28;20736;-75
2021/12/07 11:02:10;;;;;;;4.03;2.63;;;6.40;99.90;;;;;;5053834;28;20194;-77
2021/12/07 11:04:37;;;;;;;0.50;0.38;;;6.50;99.90;;;;;;5054755;28;20206;-76
2021/12/07 11:07:14;;;;;;;2.05;1.95;;;6.60;99.90;;;;;;5054689;28;20201;-75
2021/12/07 11:09:46;;;;;;;0.50;0.40;;;6.70;99.90;;;;;;5054201;28;20178;-75
2021/12/07 11:12:15;;;;;;;0.50;0.40;;;6.80;99.90;;;;;;5054119;28;20268;-75
2021/12/07 11:14:50;;;;;;;0.50;0.50;;;7.00;99.90;;;;;;5053849;28;20206;-75
2021/12/07 11:17:19;;;;;;;0.50;0.40;;;7.20;99.90;;;;;;5053955;28;20205;-76
2021/12/07 11:19:46;;;;;;;0.50;0.40;;;7.30;99.90;;;;;;5053548;28;20223;-76
2021/12/07 11:22:19;;;;;;;0.50;0.40;;;7.40;99.90;;;;;;5053952;28;20611;-73
2021/12/07 11:24:46;;;;;;;1.98;1.33;;;7.40;99.90;;;;;;5054326;28;20187;-76
2021/12/07 11:30:09;;;;;;;0.50;0.50;;;7.40;99.90;;;;;;5053598;28;20603;-75
2021/12/07 11:32:36;;;;;;;0.60;0.40;;;7.60;99.90;;;;;;5054098;28;20182;-76
2021/12/07 11:35:17;;;;;;;1.58;0.90;;;7.50;99.90;;;;;;5053823;28;20386;-75
2021/12/07 11:37:47;;;;;;;0.50;0.50;;;7.50;99.90;;;;;;5053498;28;20199;-75
2021/12/07 11:40:18;;;;;;;0.50;0.40;;;7.20;99.90;;;;;;5053560;28;20221;-74
2021/12/07 11:42:46;;;;;;;1.98;0.88;;;7.40;99.90;;;;;;5054273;28;20182;-75
2021/12/07 11:45:18;;;;;;;1.70;0.88;;;7.50;99.90;;;;;;5053454;28;20196;-76
2021/12/07 11:47:48;;;;;;;0.50;0.50;;;7.60;99.90;;;;;;5053935;28;20682;-76
2021/12/07 11:50:19;;;;;;;0.50;0.40;;;7.90;99.90;;;;;;5052431;28;20223;-75
2021/12/07 11:52:47;;;;;;;0.73;0.73;;;8.10;99.90;;;;;;5053613;28;20195;-76
2021/12/07 11:55:15;;;;;;;0.50;0.40;;;8.40;99.90;;;;;;5053791;28;20200;-76
2021/12/07 11:57:42;;;;;;;0.50;0.40;;;8.50;99.90;;;;;;5053893;28;20206;-78
2021/12/07 12:00:13;;;;;;;0.50;0.40;;;8.80;99.90;;;;;;5053084;28;20220;-76
2021/12/07 12:02:41;;;;;;;0.50;0.40;;;8.90;99.90;;;;;;5053225;28;20206;-77
2021/12/07 12:05:09;;;;;;;0.50;0.50;;;9.10;99.90;;;;;;5053408;28;20197;-76
2021/12/07 12:07:36;;;;;;;1.25;1.15;;;9.10;99.90;;;;;;5053182;28;20203;-76
2021/12/07 12:10:06;;;;;;;0.80;0.80;;;8.50;99.90;;;;;;5052963;28;20573;-76
2021/12/07 12:12:39;;;;;;;0.50;0.40;;;7.90;99.90;;;;;;5052645;28;20210;-76
2021/12/07 12:15:24;;;;;;;0.50;0.40;;;7.70;99.90;;;;;;5053482;28;20179;-75
2021/12/07 12:18:02;;;;;;;1.88;1.75;;;7.60;99.90;;;;;;5053185;28;20180;-75
2021/12/07 12:20:43;;;;;;;0.70;0.60;;;7.40;99.90;;;;;;5053015;28;20228;-74
2021/12/07 12:23:21;;;;;;;1.13;0.60;;;7.00;99.90;;;;;;5052679;28;20237;-76
2021/12/07 12:25:55;;;;;;;0.50;0.50;;;6.80;99.90;;;;;;5053187;28;20297;-76
2021/12/07 12:28:25;;;;;;;1.60;1.50;;;6.80;99.90;;;;;;5052886;28;20186;-76
2021/12/07 12:30:52;;;;;;;1.65;0.80;;;6.80;99.90;;;;;;5052369;28;20692;-76
2021/12/07 12:33:20;;;;;;;3.72;1.58;;;6.70;99.90;;;;;;5052361;28;20202;-76
2021/12/07 12:35:52;;;;;;;0.90;0.60;;;6.70;99.90;;;;;;5052384;28;20196;-76
2021/12/07 12:38:22;;;;;;;0.50;0.40;;;6.80;99.90;;;;;;5052886;28;20560;-76
2021/12/07 12:40:57;;;;;;;0.50;0.40;;;6.90;99.90;;;;;;5052660;28;20223;-76
2021/12/07 12:43:39;;;;;;;0.60;0.50;;;7.10;99.90;;;;;;5053074;28;20241;-76
2021/12/07 12:46:07;;;;;;;0.50;0.50;;;7.30;99.90;;;;;;5052473;28;20200;-76
2021/12/07 12:48:35;;;;;;;0.88;0.80;;;7.40;99.90;;;;;;5052351;28;20200;-76
2021/12/07 12:51:04;;;;;;;0.50;0.40;;;7.50;99.90;;;;;;5051835;28;20230;-76
2021/12/07 12:53:34;;;;;;;0.50;0.40;;;7.50;99.90;;;;;;5052403;28;20211;-76
2021/12/07 12:56:03;;;;;;;0.98;0.98;;;7.40;99.90;;;;;;5052588;28;20280;-76
2021/12/07 12:58:41;;;;;;;2.42;0.70;;;7.40;99.90;;;;;;5052073;28;20204;-76
2021/12/07 13:01:23;;;;;;;0.88;0.88;;;7.40;99.90;;;;;;5052189;28;20213;-77
2021/12/07 13:04:04;;;;;;;0.60;0.60;;;7.30;99.90;;;;;;5051856;28;20199;-76
2021/12/07 13:06:49;;;;;;;5.30;2.00;;;7.20;99.90;;;;;;5052309;28;20588;-76
2021/12/07 13:09:32;;;;;;;1.13;0.52;;;7.10;99.90;;;;;;5051993;28;20282;-76
2021/12/07 13:12:02;;;;;;;0.50;0.40;;;7.10;99.90;;;;;;5052145;28;20195;-76
2021/12/07 13:14:33;;;;;;;0.50;0.40;;;7.20;99.90;;;;;;5051701;28;20206;-76
2021/12/07 13:17:05;;;;;;;0.50;0.40;;;7.20;99.90;;;;;;5051951;28;20201;-76
2021/12/07 13:19:53;;;;;;;0.50;0.40;;;7.20;99.90;;;;;;5051423;28;20189;-77
2021/12/07 13:22:20;;;;;;;1.23;1.13;;;7.20;99.90;;;;;;5051831;28;20198;-76
2021/12/07 13:24:48;;;;;;;0.73;0.55;;;7.20;99.90;;;;;;5051847;28;20568;-78
2021/12/07 13:27:16;;;;;;;0.85;0.85;;;7.20;99.90;;;;;;5051152;28;20233;-77
2021/12/07 13:29:47;;;;;;;1.23;1.15;;;7.20;99.90;;;;;;5051200;28;20196;-77
2021/12/07 13:32:14;;;;;;;0.70;0.60;;;7.20;99.90;;;;;;5052777;28;20239;-76
2021/12/07 13:34:42;;;;;;;0.50;0.40;;;7.10;99.90;;;;;;5052544;28;20203;-77
2021/12/07 13:37:11;;;;;;;0.50;0.40;;;7.10;99.90;;;;;;5050827;28;20580;-77
2021/12/07 13:39:44;;;;;;;0.50;0.40;;;7.00;99.90;;;;;;5051267;28;20207;-76
2021/12/07 13:42:21;;;;;;;0.50;0.40;;;7.00;99.90;;;;;;5050978;28;20213;-77
2021/12/07 13:44:52;;;;;;;2.08;0.65;;;6.90;99.90;;;;;;5048827;28;20190;-75
2021/12/07 13:47:21;;;;;;;0.60;0.50;;;6.80;99.90;;;;;;5031579;28;20197;-77
2021/12/07 13:49:53;;;;;;;0.50;0.50;;;6.70;99.90;;;;;;5043325;28;20273;-76
2021/12/07 13:52:22;;;;;;;0.50;0.40;;;6.70;99.90;;;;;;5051404;28;20204;-76
2021/12/07 13:54:53;;;;;;;0.50;0.40;;;6.70;99.90;;;;;;5043485;28;20188;-76
2021/12/07 13:57:22;;;;;;;0.50;0.40;;;6.60;99.90;;;;;;5042029;28;20191;-76
2021/12/07 13:59:57;;;;;;;0.60;0.60;;;6.50;99.90;;;;;;5050903;28;20233;-77
2021/12/07 14:02:25;;;;;;;0.60;0.57;;;6.40;99.90;;;;;;5047231;28;20567;-75
2021/12/07 14:05:00;;;;;;;0.50;0.40;;;6.20;99.90;;;;;;5050471;28;20557;-77
2021/12/07 14:07:27;;;;;;;0.50;0.40;;;6.10;99.90;;;;;;5051060;28;20176;-76
2021/12/07 14:09:53;;;;;;;2.15;0.95;;;6.00;99.90;;;;;;5050462;28;20588;-76
2021/12/07 14:12:23;;;;;;;0.50;0.50;;;6.00;99.90;;;;;;5050950;28;20207;-78
2021/12/07 14:14:50;;;;;;;0.50;0.40;;;5.90;99.90;;;;;;5050682;28;20203;-75
2021/12/07 14:17:18;;;;;;;0.50;0.40;;;5.80;99.90;;;;;;5030793;28;20195;-78
2021/12/07 14:19:44;;;;;;;0.50;0.40;;;5.70;99.90;;;;;;5030537;28;20200;-76
2021/12/07 14:22:13;;;;;;;0.50;0.40;;;5.70;99.90;;;;;;5030929;28;20192;-76
2021/12/07 14:24:39;;;;;;;0.50;0.40;;;5.60;99.90;;;;;;5030937;28;20203;-77
2021/12/07 14:27:07;;;;;;;0.80;0.77;;;5.60;99.90;;;;;;5031034;28;20195;-75
2021/12/07 14:29:34;;;;;;;0.50;0.50;;;5.50;99.90;;;;;;5030563;28;20191;-76
2021/12/07 14:32:01;;;;;;;0.70;0.70;;;5.40;99.90;;;;;;5030596;28;20212;-76